Flugmeteorologie

  • METAR LHSM 221545Z 19003KT 9999 FEW050TCU 26/14 Q1013 NOSIG=
  • METAR LHSM 221515Z 19003KT CAVOK 26/11 Q1014 NOSIG=
  • METAR LHSM 221445Z 18003KT CAVOK 26/13 Q1014 NOSIG=
  • METAR LHSM 221415Z 19004KT CAVOK 26/12 Q1014 NOSIG=
  • METAR LHSM 221345Z 14003KT CAVOK 26/14 Q1014 NOSIG=

  • TAF LHSM 221115Z 2212/2221 VRB03KT CAVOK=
  • TAF LHSM 220815Z 2209/2218 VRB03KT CAVOK=
  • TAF LHSM 220515Z 2206/2215 VRB03KT CAVOK=
  • TAF LHSM 211415Z 2115/2124 16007KT CAVOK BECMG 2116/2119 VRB03KT=
  • TAF LHSM 211115Z 2112/2121 16006KT CAVOK=